Latest Coastal Weather Observations for Warrnambool

IDV60701

Issued at 7:42 am EDT Tuesday 12 December 2017 (issued every 10 minutes, with the page automatically refreshed every 10 minutes)

About coastal observations | Map of coastal stations | Coastal observations for VIC | Marine services | Other Formats
Station Details ID: 090186 Name: WARRNAMBOOL AIRPORT NDB Lat: -38.29 Lon: 142.45 Height: 70.8 m
Data from the previous 72 hours. | See also: Recent months at Warrnambool
Date/Time
EDT
Temp
°C
Wind Pressure Rain since
9am
mm
Weather Cloud Vis
km
Sea
Height
m
Swell
Dir  Spd
kts
Gust
kts
hPa Trend Height
m
Period
s
Dir
12/07:30am 11.3 NE 8 11 1018.1 - 0.0 - Clear 10 - - - -
12/07:00am 9.6 NE 6 8 1018.1 - 0.0 - - 10 - - - -
12/06:30am 8.0 NE 6 8 1018.2 - 0.0 - - 10 - - - -
12/06:00am 7.2 ENE 3 5 1018.3 - 0.0 - - 10 - - - -
12/05:30am 7.5 NE 5 7 1018.1 - 0.0 - - 10 - - - -
12/05:00am 7.5 NE 5 6 1018.1 - 0.0 - - 10 - - - -
12/04:54am 7.4 NE 4 6 1018.2 - 0.0 - - 10 - - - -
12/04:31am 6.9 CALM 0 0 1018.5 - 0.0 - - 5 - - - -
12/04:30am 7.0 CALM 0 0 1018.5 - 0.0 - - 8 - - - -
12/04:00am 7.9 ENE 4 5 1018.6 - 0.0 - - 10 - - - -
12/03:30am 6.9 CALM 0 0 1018.9 - 0.0 - - 10 - - - -
12/03:00am 9.6 CALM 0 3 1019.2 - 0.0 - - 10 - - - -
12/02:30am 10.5 E 4 5 1019.3 - 0.0 - - 10 - - - -
12/02:00am 9.8 ESE 1 4 1019.8 - 0.0 - - 10 - - - -
12/01:30am 11.3 SE 4 5 1020.4 - 0.0 - - 10 - - - -
12/01:00am 12.0 ESE 4 5 1020.5 - 0.0 - Partly cloudy 10 - - - -
12/12:30am 12.5 SE 4 5 1020.9 - 0.0 - Partly cloudy 10 - - - -
12/12:00am 13.0 SE 5 8 1021.1 - 0.0 - Partly cloudy 10 - - - -
 
Date/Time
EDT
Temp
°C
Wind Pressure Rain since
9am
mm
Weather Cloud Vis
km
Sea
Height
m
Swell
Dir  Spd
kts
Gust
kts
hPa Trend Height
m
Period
s
Dir
11/11:30pm 13.6 SE 4 5 1021.3 - 0.0 - Cloudy 10 - - - -
11/11:00pm 13.8 SE 4 5 1021.6 - 0.0 - Cloudy 10 - - - -
11/10:30pm 13.1 SE 4 6 1021.8 - 0.0 - Partly cloudy 10 - - - -
11/10:00pm 13.7 SSE 6 8 1021.7 - 0.0 - Partly cloudy 10 - - - -
11/09:30pm 14.9 SSE 7 10 1021.5 - 0.0 - Cloudy 10 - - - -
11/09:00pm 14.9 SSE 6 8 1021.5 - 0.0 - Cloudy 10 - - - -
11/08:30pm 15.2 SSE 8 11 1021.4 - 0.0 - Cloudy 10 - - - -
11/08:00pm 15.4 S 8 13 1021.3 - 0.0 - Cloudy 10 - - - -
11/07:30pm 16.1 S 11 15 1021.2 - 0.0 - Cloudy 10 - - - -
11/07:00pm 16.5 S 11 14 1021.3 - 0.0 - Cloudy 10 - - - -
11/06:30pm 16.6 S 11 15 1021.1 - 0.0 - Cloudy 10 - - - -
11/06:00pm 17.2 SSW 10 15 1021.0 - 0.0 - Partly cloudy 10 - - - -
11/05:30pm 17.5 S 11 14 1021.1 - 0.0 - Cloudy 10 - - - -
11/05:00pm 18.4 SSW 11 17 1021.3 - 0.0 - Cloudy 10 - - - -
11/04:30pm 18.7 SSW 11 17 1021.3 - 0.0 - Cloudy 10 - - - -
11/04:00pm 17.9 SSW 9 14 1021.4 - 0.0 - Partly cloudy 10 - - - -
11/03:30pm 17.8 SSW 10 14 1021.5 - 0.0 - Partly cloudy 10 - - - -
11/03:00pm 17.7 S 10 15 1021.7 - 0.0 - Mostly cloudy 10 - - - -
11/02:30pm 18.2 S 9 15 1021.8 - 0.0 - Partly cloudy 10 - - - -
11/02:00pm 17.3 S 11 15 1022.1 - 0.0 - Partly cloudy 10 - - - -
11/01:30pm 18.6 SSW 11 15 1022.2 - 0.0 - Partly cloudy 10 - - - -
11/01:00pm 17.5 S 10 14 1022.3 - 0.0 - Partly cloudy 10 - - - -
11/12:30pm 18.2 SSW 8 12 1022.5 - 0.0 - Partly cloudy 10 - - - -
11/12:00pm 17.2 SW 8 11 1022.6 - 0.0 - Cloudy 10 - - - -
11/11:30am 16.6 SSW 8 11 1022.9 - 0.0 - Partly cloudy 10 - - - -
11/11:00am 16.5 SSW 8 11 1023.1 - 0.0 - Partly cloudy 10 - - - -
11/10:30am 16.5 SW 7 10 1022.9 - 0.0 - Cloudy 10 - - - -
11/10:00am 15.9 SSW 9 13 1022.9 - 0.0 - Partly cloudy 10 - - - -
11/09:30am 14.9 S 4 5 1023.0 - 0.0 - Partly cloudy 10 - - - -
11/09:00am 14.2 ESE 5 7 1022.9 - 0.0 Recent precip. Cloudy 10 - - - -
11/08:43am 13.9 SSE 5 7 1022.9 - 0.0 - Partly cloudy 10 - - - -
11/08:31am 13.7 SSE 6 9 1022.7 - 0.0 - Partly cloudy 4 - - - -
11/08:30am 13.7 SSE 6 9 1022.7 - 0.0 - Partly cloudy 3 - - - -
11/08:20am 13.6 S 9 12 1022.8 - 0.0 - Partly cloudy 2 - - - -
11/08:15am 13.6 S 11 13 1022.8 - 0.0 - Partly cloudy 5 - - - -
11/08:00am 14.6 S 9 13 1022.5 - 0.0 - Partly cloudy 10 - - - -
11/07:30am 14.7 S 7 9 1022.1 - 0.0 - Cloudy 10 - - - -
11/07:00am 14.4 S 6 9 1021.9 - 0.0 - Cloudy 10 - - - -
11/06:30am 14.0 SSW 4 6 1021.7 - 0.0 - Cloudy 10 - - - -
11/06:00am 13.8 W 2 4 1021.6 - 0.0 - Cloudy 10 - - - -
11/05:30am 13.9 W 2 4 1021.4 - 0.0 - Cloudy 10 - - - -
11/05:00am 14.0 SSW 4 5 1021.2 - 0.0 - Cloudy 10 - - - -
11/04:30am 13.8 SW 4 6 1021.2 - 0.0 - Cloudy 10 - - - -
11/04:00am 14.0 SW 5 7 1021.4 - 0.0 - Cloudy 10 - - - -
11/03:30am 13.8 SW 5 8 1021.7 - 0.0 - Cloudy 10 - - - -
11/03:00am 14.1 WSW 5 8 1021.8 - 0.0 - Cloudy 10 - - - -
11/02:30am 14.0 W 5 7 1022.0 - 0.0 - Cloudy 10 - - - -
11/02:00am 14.3 WSW 5 8 1022.3 - 0.0 - Cloudy 10 - - - -
11/01:30am 14.4 S 7 10 1022.6 - 0.0 - Cloudy 10 - - - -
11/01:00am 14.2 SSW 5 7 1023.0 - 0.0 - Cloudy 10 - - - -
11/12:30am 14.4 SSW 5 7 1023.2 - 0.0 - Cloudy 10 - - - -
11/12:00am 14.3 WSW 7 8 1023.5 - 0.0 - Cloudy 10 - - - -
 
Date/Time
EDT
Temp
°C
Wind Pressure Rain since
9am
mm
Weather Cloud Vis
km
Sea
Height
m
Swell
Dir  Spd
kts
Gust
kts
hPa Trend Height
m
Period
s
Dir
10/11:30pm 14.7 WSW 7 11 1023.7 - 0.0 - Cloudy 10 - - - -
10/11:00pm 14.5 SW 6 7 1023.8 - 0.0 - Cloudy 10 - - - -
10/10:30pm 14.4 SW 5 5 1023.7 - 0.0 - Cloudy 10 - - - -
10/10:00pm 14.6 WSW 5 7 1023.5 - 0.0 - Cloudy 10 - - - -
10/09:30pm 14.9 SSW 6 7 1023.4 - 0.0 - Cloudy 10 - - - -
10/09:00pm 15.1 SW 7 9 1023.5 - 0.0 - Cloudy 10 - - - -
10/08:30pm 15.3 SSW 8 11 1023.5 - 0.0 - Cloudy 10 - - - -
10/08:00pm 15.5 SW 10 12 1023.4 - 0.0 - Cloudy 10 - - - -
10/07:30pm 15.9 SW 10 14 1023.3 - 0.0 - Cloudy 10 - - - -
10/07:00pm 16.5 SW 12 16 1023.1 - 0.0 - Cloudy 10 - - - -
10/06:30pm 16.9 SW 13 19 1022.9 - 0.0 - Cloudy 10 - - - -
10/06:00pm 17.2 SW 13 17 1022.9 - 0.0 - Mostly cloudy 10 - - - -
10/05:30pm 17.9 SW 13 17 1022.8 - 0.0 - Cloudy 10 - - - -
10/05:00pm 18.0 SW 14 18 1022.9 - 0.0 - Cloudy 10 - - - -
10/04:30pm 17.6 SW 15 19 1023.0 - 0.0 - Cloudy 10 - - - -
10/04:00pm 18.4 SSW 16 21 1023.0 - 0.0 - Partly cloudy 10 - - - -
10/03:30pm 18.1 SW 15 19 1023.0 - 0.0 - Cloudy 10 - - - -
10/03:00pm 18.5 SW 14 18 1022.9 - 0.0 - Mostly cloudy 10 - - - -
10/02:30pm 18.9 SW 15 19 1023.0 - 0.0 - Partly cloudy 10 - - - -
10/02:00pm 18.8 SW 14 21 1023.1 - 0.0 - Cloudy 10 - - - -
10/01:30pm 19.1 WSW 10 16 1023.3 - 0.0 - Cloudy 10 - - - -
10/01:00pm 19.4 SW 9 13 1023.5 - 0.0 - Cloudy 10 - - - -
10/12:30pm 17.8 W 9 13 1023.7 - 0.0 - Cloudy 10 - - - -
10/12:00pm 17.3 W 9 11 1023.8 - 0.0 - Cloudy 10 - - - -
10/11:30am 16.8 W 8 11 1023.8 - 0.0 - Cloudy 10 - - - -
10/11:00am 16.1 W 9 11 1023.8 - 0.0 - Partly cloudy 10 - - - -
10/10:30am 15.8 W 8 12 1023.7 - 0.0 - Partly cloudy 10 - - - -
10/10:00am 15.2 WNW 9 12 1023.8 - 0.0 - Partly cloudy 10 - - - -
10/09:30am 15.5 W 9 12 1023.7 - 0.0 - Partly cloudy 10 - - - -
10/09:00am 15.2 NW 5 9 1023.5 - 0.2 - Cloudy 10 - - - -
10/08:30am 14.8 WNW 5 7 1023.3 - 0.2 - Partly cloudy 10 - - - -
10/08:28am 14.6 WNW 5 7 1023.2 - 0.2 - Partly cloudy 10 - - - -
10/08:05am 14.3 W 9 11 1023.2 - 0.2 - Partly cloudy 10 - - - -
10/08:00am 14.3 W 8 11 1023.1 - 0.2 - Partly cloudy 10 - - - -
10/07:30am 14.4 WNW 5 8 1022.9 - 0.2 - Cloudy 10 - - - -
10/07:00am 14.2 NW 4 6 1022.7 - 0.2 - Cloudy 10 - - - -
10/06:30am 14.1 WNW 5 7 1022.5 - 0.2 - Cloudy 10 - - - -
10/06:00am 14.0 WNW 5 7 1022.4 - 0.2 - Cloudy 10 - - - -
10/05:30am 14.0 NW 5 8 1022.1 - 0.2 - Cloudy 10 - - - -
10/05:00am 14.1 WNW 5 7 1022.0 - 0.2 - Cloudy 10 - - - -
10/04:30am 14.1 WNW 5 7 1022.0 - 0.2 - Cloudy 10 - - - -
10/04:00am 14.2 WNW 6 8 1021.9 - 0.2 - Cloudy 10 - - - -
10/03:30am 14.2 WNW 6 9 1021.9 - 0.2 - Cloudy 10 - - - -
10/03:00am 14.3 WNW 6 8 1021.9 - 0.2 - Cloudy 10 - - - -
10/02:30am 14.1 NW 6 7 1022.0 - 0.2 - Cloudy 10 - - - -
10/02:00am 14.3 WNW 5 7 1022.2 - 0.2 - Cloudy 10 - - - -
10/01:30am 14.5 NW 5 7 1022.2 - 0.2 - Cloudy 10 - - - -
10/01:00am 14.3 NW 4 6 1022.4 - 0.2 - Cloudy 10 - - - -
10/12:30am 14.3 WNW 5 7 1022.7 - 0.2 - Cloudy 10 - - - -
10/12:00am 14.3 WNW 5 7 1022.9 - 0.2 - Cloudy 10 - - - -
 
Date/Time
EDT
Temp
°C
Wind Pressure Rain since
9am
mm
Weather Cloud Vis
km
Sea
Height
m
Swell
Dir  Spd
kts
Gust
kts
hPa Trend Height
m
Period
s
Dir
09/11:30pm 14.2 WNW 4 7 1023.0 - 0.2 - Cloudy 10 - - - -
09/11:00pm 14.1 W 6 8 1023.2 - 0.2 - Cloudy 10 - - - -
09/10:30pm 14.1 W 7 11 1023.1 - 0.2 - Cloudy 10 - - - -
09/10:00pm 14.4 W 6 7 1023.0 - 0.2 - Partly cloudy 10 - - - -
09/09:30pm 13.7 WSW 6 8 1022.7 - 0.2 - Partly cloudy 10 - - - -
09/09:00pm 13.7 W 7 9 1022.5 - 0.2 - - 10 - - - -
09/08:30pm 14.8 WSW 9 13 1022.4 - 0.2 - Partly cloudy 10 - - - -
09/08:00pm 15.2 WSW 9 13 1022.3 - 0.2 - Partly cloudy 10 - - - -
09/07:30pm 16.5 WSW 13 17 1022.1 - 0.2 - Partly cloudy 10 - - - -
09/07:00pm 17.2 SW 13 17 1021.7 - 0.2 - Partly cloudy 10 - - - -
09/06:30pm 17.5 WSW 13 17 1021.5 - 0.2 - Cloudy 10 - - - -
09/06:00pm 17.9 WSW 15 18 1021.5 - 0.2 - Cloudy 10 - - - -
09/05:30pm 18.4 WSW 16 21 1021.5 - 0.2 - Partly cloudy 10 - - - -
09/05:00pm 19.5 WSW 17 23 1021.6 - 0.2 - Partly cloudy 10 - - - -
09/04:30pm 18.4 WSW 16 21 1021.6 - 0.2 - Partly cloudy 10 - - - -
09/04:00pm 18.1 WSW 15 21 1021.6 - 0.2 - Partly cloudy 10 - - - -
09/03:30pm 18.8 W 15 21 1021.5 - 0.2 - Partly cloudy 10 - - - -
09/03:00pm 18.3 WSW 16 22 1021.4 - 0.2 - Cloudy 10 - - - -
09/02:30pm 18.6 WSW 17 25 1021.5 - 0.2 - Partly cloudy 10 - - - -
09/02:00pm 18.1 WSW 16 20 1021.4 - 0.2 - Partly cloudy 10 - - - -
09/01:30pm 18.4 WSW 17 22 1021.3 - 0.2 - Partly cloudy 10 - - - -
09/01:00pm 19.3 WSW 18 24 1021.2 - 0.2 - Partly cloudy 10 - - - -
09/12:30pm 18.3 WSW 19 25 1021.1 - 0.2 - Partly cloudy 10 - - - -
09/12:00pm 19.2 W 18 26 1021.1 - 0.2 - Cloudy 10 - - - -
09/11:36am 17.7 W 20 30 1021.1 - 0.2 - Partly cloudy 10 - - - -
09/11:30am 17.5 W 22 30 1021.1 - 0.2 - Partly cloudy 10 - - - -
09/11:24am 17.1 W 19 29 1021.0 - 0.2 - Partly cloudy 10 - - - -
09/11:00am 16.1 W 14 21 1020.9 - 0.2 - Partly cloudy 10 - - - -
09/10:48am 15.7 WSW 14 18 1020.8 - 0.2 - Partly cloudy 10 - - - -
09/10:30am 15.3 WSW 15 20 1020.7 - 0.0 - Partly cloudy 5 - - - -
09/10:27am 15.2 W 15 20 1020.7 - 0.0 - Partly cloudy 8 - - - -
09/10:07am 16.3 W 16 23 1020.6 - 0.0 - Partly cloudy 10 - - - -
09/10:00am 15.7 W 17 23 1020.5 - 0.0 - Partly cloudy 6 - - - -
09/09:57am 15.4 W 16 23 1020.5 - 0.0 - Partly cloudy 6 - - - -
09/09:40am 16.4 W 14 21 1020.2 - 0.0 - Partly cloudy 10 - - - -
09/09:30am 16.2 W 15 19 1020.2 - 0.0 - Partly cloudy 10 - - - -
09/09:02am 15.1 WNW 13 17 1020.0 - 0.0 - Partly cloudy 10 - - - -
09/09:00am 15.0 W 13 19 1020.0 - 0.0 Showers Cloudy 10 - - - -
09/08:44am 14.7 W 17 23 1020.1 - 0.0 - Partly cloudy 5 - - - -
09/08:30am 15.9 WNW 13 19 1019.6 - 0.0 - Partly cloudy 10 - - - -
09/08:00am 14.9 NW 11 16 1019.4 - 0.0 - Cloudy - - - - -

Other Formats:

Comma delimited format used in spreadsheet applications
http://www.bom.gov.au/fwo/IDV60701/IDV60701.94837.axf

JavaScript Object Notation format (JSON) in row-major order
http://www.bom.gov.au/fwo/IDV60701/IDV60701.94837.json